sensor_id;sensor_type;location;lat;lon;timestamp;pressure;altitude;pressure_sealevel;temperature;humidity
76260;BME280;65076;52.362;6.588;2023-11-21T00:01:08;101051.59;;;11.01;80.22
76260;BME280;65076;52.362;6.588;2023-11-21T00:08:39;101060.75;;;11.18;79.64
76260;BME280;65076;52.362;6.588;2023-11-21T00:16:18;101067.44;;;11.29;79.83
76260;BME280;65076;52.362;6.588;2023-11-21T00:18:49;101055.25;;;11.38;80.38
76260;BME280;65076;52.362;6.588;2023-11-21T00:21:24;101056.28;;;11.54;79.75
76260;BME280;65076;52.362;6.588;2023-11-21T00:28:56;101044.78;;;11.49;79.37
76260;BME280;65076;52.362;6.588;2023-11-21T00:36:33;101056.31;;;11.35;79.23
76260;BME280;65076;52.362;6.588;2023-11-21T00:41:37;101061.19;;;10.70;81.34
76260;BME280;65076;52.362;6.588;2023-11-21T00:46:40;101065.78;;;11.25;81.44
76260;BME280;65076;52.362;6.588;2023-11-21T00:51:44;101074.88;;;11.43;80.90
76260;BME280;65076;52.362;6.588;2023-11-21T00:56:45;101086.41;;;10.90;80.63
76260;BME280;65076;52.362;6.588;2023-11-21T00:59:18;101078.59;;;11.03;82.43
76260;BME280;65076;52.362;6.588;2023-11-21T01:07:00;101080.66;;;10.98;82.52
76260;BME280;65076;52.362;6.588;2023-11-21T01:12:03;101101.44;;;10.37;84.28
76260;BME280;65076;52.362;6.588;2023-11-21T01:17:05;101094.97;;;10.61;84.94
76260;BME280;65076;52.362;6.588;2023-11-21T01:22:10;101108.75;;;10.75;83.33
76260;BME280;65076;52.362;6.588;2023-11-21T01:29:38;101122.59;;;11.08;82.63
76260;BME280;65076;52.362;6.588;2023-11-21T01:34:40;101108.22;;;10.87;81.56
76260;BME280;65076;52.362;6.588;2023-11-21T01:37:16;101138.56;;;11.14;81.18
76260;BME280;65076;52.362;6.588;2023-11-21T01:48:00;101115.31;;;10.70;83.09
76260;BME280;65076;52.362;6.588;2023-11-21T01:50:35;101116.63;;;10.19;83.92
76260;BME280;65076;52.362;6.588;2023-11-21T01:58:11;101132.91;;;10.80;83.90
76260;BME280;65076;52.362;6.588;2023-11-21T02:03:13;101139.56;;;10.73;82.16
76260;BME280;65076;52.362;6.588;2023-11-21T02:05:45;101135.81;;;10.75;84.29
76260;BME280;65076;52.362;6.588;2023-11-21T02:15:49;101133.16;;;10.74;82.32
76260;BME280;65076;52.362;6.588;2023-11-21T02:20:51;101141.00;;;10.39;84.61
76260;BME280;65076;52.362;6.588;2023-11-21T02:23:29;101133.97;;;10.96;84.16
76260;BME280;65076;52.362;6.588;2023-11-21T02:26:08;101144.19;;;10.49;83.90
76260;BME280;65076;52.362;6.588;2023-11-21T02:31:08;101151.13;;;10.56;84.02
76260;BME280;65076;52.362;6.588;2023-11-21T02:36:31;101141.38;;;10.72;83.01
76260;BME280;65076;52.362;6.588;2023-11-21T02:46:37;101153.81;;;10.76;83.49
76260;BME280;65076;52.362;6.588;2023-11-21T02:54:07;101154.03;;;10.30;85.14
76260;BME280;65076;52.362;6.588;2023-11-21T02:56:44;101153.19;;;10.49;85.35
76260;BME280;65076;52.362;6.588;2023-11-21T02:59:21;101154.38;;;10.42;84.94
76260;BME280;65076;52.362;6.588;2023-11-21T03:06:58;101177.38;;;11.15;82.83
76260;BME280;65076;52.362;6.588;2023-11-21T03:14:27;101171.94;;;11.15;80.44
76260;BME280;65076;52.362;6.588;2023-11-21T03:16:59;101179.25;;;11.13;80.30
76260;BME280;65076;52.362;6.588;2023-11-21T03:27:06;101176.19;;;11.20;79.33
76260;BME280;65076;52.362;6.588;2023-11-21T03:42:12;101180.75;;;11.20;80.62
76260;BME280;65076;52.362;6.588;2023-11-21T03:49:40;101189.34;;;11.48;79.78
76260;BME280;65076;52.362;6.588;2023-11-21T03:52:24;101188.22;;;11.15;79.53
76260;BME280;65076;52.362;6.588;2023-11-21T03:57:24;101190.50;;;11.03;79.95
76260;BME280;65076;52.362;6.588;2023-11-21T04:02:24;101198.44;;;10.88;80.94
76260;BME280;65076;52.362;6.588;2023-11-21T04:04:57;101202.34;;;10.81;81.89
76260;BME280;65076;52.362;6.588;2023-11-21T04:07:29;101198.81;;;10.79;81.73
76260;BME280;65076;52.362;6.588;2023-11-21T04:15:01;101219.81;;;11.14;80.21
76260;BME280;65076;52.362;6.588;2023-11-21T04:22:40;101220.03;;;11.48;80.57
76260;BME280;65076;52.362;6.588;2023-11-21T04:35:21;101238.72;;;11.75;79.85
76260;BME280;65076;52.362;6.588;2023-11-21T04:40:24;101241.75;;;11.67;78.40
76260;BME280;65076;52.362;6.588;2023-11-21T04:47:55;101246.22;;;11.68;78.61
76260;BME280;65076;52.362;6.588;2023-11-21T04:50:35;101246.63;;;11.79;78.25
76260;BME280;65076;52.362;6.588;2023-11-21T04:58:06;101256.81;;;11.54;77.40
76260;BME280;65076;52.362;6.588;2023-11-21T05:08:09;101273.16;;;11.32;78.24
76260;BME280;65076;52.362;6.588;2023-11-21T05:10:55;101282.34;;;11.69;78.93
76260;BME280;65076;52.362;6.588;2023-11-21T05:13:31;101292.28;;;11.29;78.19
76260;BME280;65076;52.362;6.588;2023-11-21T05:26:26;101303.34;;;11.84;77.49
76260;BME280;65076;52.362;6.588;2023-11-21T05:29:00;101303.03;;;11.71;77.32
76260;BME280;65076;52.362;6.588;2023-11-21T05:31:33;101305.69;;;11.73;78.16
76260;BME280;65076;52.362;6.588;2023-11-21T05:41:36;101323.66;;;11.94;77.72
76260;BME280;65076;52.362;6.588;2023-11-21T05:44:10;101317.13;;;11.79;77.05
76260;BME280;65076;52.362;6.588;2023-11-21T05:51:51;101342.66;;;11.94;78.22
76260;BME280;65076;52.362;6.588;2023-11-21T05:56:54;101340.78;;;11.56;78.29
76260;BME280;65076;52.362;6.588;2023-11-21T05:59:29;101344.91;;;11.64;78.61
76260;BME280;65076;52.362;6.588;2023-11-21T06:02:02;101331.34;;;11.84;79.43
76260;BME280;65076;52.362;6.588;2023-11-21T06:09:33;101360.47;;;11.59;79.41
76260;BME280;65076;52.362;6.588;2023-11-21T06:17:06;101357.31;;;11.50;80.04
76260;BME280;65076;52.362;6.588;2023-11-21T06:22:03;101375.69;;;11.21;80.50
76260;BME280;65076;52.362;6.588;2023-11-21T06:29:43;101379.81;;;11.72;79.09
76260;BME280;65076;52.362;6.588;2023-11-21T06:42:40;101407.59;;;11.15;81.13
76260;BME280;65076;52.362;6.588;2023-11-21T06:47:41;101408.38;;;11.38;81.28
76260;BME280;65076;52.362;6.588;2023-11-21T06:50:16;101418.94;;;11.44;81.37
76260;BME280;65076;52.362;6.588;2023-11-21T06:55:21;101421.25;;;11.75;81.48
76260;BME280;65076;52.362;6.588;2023-11-21T07:00:27;101425.72;;;11.55;79.25
76260;BME280;65076;52.362;6.588;2023-11-21T07:05:27;101436.91;;;11.67;80.10
76260;BME280;65076;52.362;6.588;2023-11-21T07:07:59;101433.50;;;11.84;80.17
76260;BME280;65076;52.362;6.588;2023-11-21T07:15:36;101449.50;;;11.90;78.48
76260;BME280;65076;52.362;6.588;2023-11-21T07:20:36;101459.28;;;11.72;79.75
76260;BME280;65076;52.362;6.588;2023-11-21T07:23:09;101443.75;;;11.77;78.77
76260;BME280;65076;52.362;6.588;2023-11-21T07:30:41;101489.09;;;11.72;80.54
76260;BME280;65076;52.362;6.588;2023-11-21T07:35:44;101486.28;;;12.17;77.96
76260;BME280;65076;52.362;6.588;2023-11-21T07:38:19;101490.19;;;12.10;77.28
76260;BME280;65076;52.362;6.588;2023-11-21T07:43:23;101509.91;;;11.94;78.52
76260;BME280;65076;52.362;6.588;2023-11-21T07:51:06;101523.22;;;12.20;77.22
76260;BME280;65076;52.362;6.588;2023-11-21T07:56:06;101539.44;;;12.01;77.98
76260;BME280;65076;52.362;6.588;2023-11-21T08:01:09;101540.41;;;11.78;80.71
76260;BME280;65076;52.362;6.588;2023-11-21T08:03:40;101544.38;;;12.12;80.04
76260;BME280;65076;52.362;6.588;2023-11-21T08:11:24;101563.03;;;11.56;80.10
76260;BME280;65076;52.362;6.588;2023-11-21T08:16:26;101564.44;;;11.42;82.09
76260;BME280;65076;52.362;6.588;2023-11-21T08:19:06;101578.25;;;11.13;83.74
76260;BME280;65076;52.362;6.588;2023-11-21T08:24:09;101580.19;;;10.86;86.19
76260;BME280;65076;52.362;6.588;2023-11-21T08:29:12;101592.53;;;10.45;89.10
76260;BME280;65076;52.362;6.588;2023-11-21T08:34:19;101604.94;;;10.26;89.17
76260;BME280;65076;52.362;6.588;2023-11-21T08:39:18;101610.41;;;10.25;90.66
76260;BME280;65076;52.362;6.588;2023-11-21T08:41:51;101608.53;;;10.27;91.44
76260;BME280;65076;52.362;6.588;2023-11-21T08:44:30;101610.56;;;10.20;91.50
76260;BME280;65076;52.362;6.588;2023-11-21T08:51:59;101622.06;;;11.01;88.58
76260;BME280;65076;52.362;6.588;2023-11-21T08:54:34;101620.75;;;11.11;87.94
76260;BME280;65076;52.362;6.588;2023-11-21T09:02:07;101619.84;;;10.62;88.77
76260;BME280;65076;52.362;6.588;2023-11-21T09:12:07;101648.38;;;10.97;88.10
76260;BME280;65076;52.362;6.588;2023-11-21T09:17:14;101659.22;;;10.73;91.82
76260;BME280;65076;52.362;6.588;2023-11-21T09:22:14;101663.88;;;11.17;90.59
76260;BME280;65076;52.362;6.588;2023-11-21T09:27:19;101673.91;;;10.66;91.51
76260;BME280;65076;52.362;6.588;2023-11-21T09:32:24;101683.22;;;11.07;89.73
76260;BME280;65076;52.362;6.588;2023-11-21T09:37:25;101685.66;;;10.89;90.20
76260;BME280;65076;52.362;6.588;2023-11-21T09:39:58;101693.94;;;11.10;90.73
76260;BME280;65076;52.362;6.588;2023-11-21T09:42:38;101695.84;;;11.31;88.95
76260;BME280;65076;52.362;6.588;2023-11-21T09:50:17;101702.91;;;11.12;90.78
76260;BME280;65076;52.362;6.588;2023-11-21T09:55:21;101717.69;;;11.26;88.79
76260;BME280;65076;52.362;6.588;2023-11-21T10:00:24;101730.72;;;11.17;90.79
76260;BME280;65076;52.362;6.588;2023-11-21T10:05:29;101729.38;;;11.52;88.39
76260;BME280;65076;52.362;6.588;2023-11-21T10:10:32;101736.75;;;11.48;89.18
76260;BME280;65076;52.362;6.588;2023-11-21T10:15:34;101740.47;;;11.45;88.28
76260;BME280;65076;52.362;6.588;2023-11-21T10:20:44;101731.69;;;11.39;89.28
76260;BME280;65076;52.362;6.588;2023-11-21T10:25:53;101743.34;;;10.91;89.82
76260;BME280;65076;52.362;6.588;2023-11-21T10:30:59;101750.38;;;10.72;92.24
76260;BME280;65076;52.362;6.588;2023-11-21T10:36:04;101755.28;;;10.86;91.56
76260;BME280;65076;52.362;6.588;2023-11-21T10:41:10;101763.50;;;11.34;89.67
76260;BME280;65076;52.362;6.588;2023-11-21T10:43:46;101768.63;;;10.92;89.29
76260;BME280;65076;52.362;6.588;2023-11-21T10:48:46;101780.22;;;11.20;89.85
76260;BME280;65076;52.362;6.588;2023-11-21T10:51:29;101779.44;;;10.92;91.19
76260;BME280;65076;52.362;6.588;2023-11-21T10:56:32;101788.13;;;11.26;90.47
76260;BME280;65076;52.362;6.588;2023-11-21T11:04:19;101800.44;;;10.85;91.67
76260;BME280;65076;52.362;6.588;2023-11-21T11:09:23;101802.09;;;10.89;92.17
76260;BME280;65076;52.362;6.588;2023-11-21T11:14:24;101814.69;;;10.64;94.09
76260;BME280;65076;52.362;6.588;2023-11-21T11:19:25;101809.22;;;10.92;92.78
76260;BME280;65076;52.362;6.588;2023-11-21T11:30:22;101813.81;;;10.90;92.83
76260;BME280;65076;52.362;6.588;2023-11-21T11:33:22;101820.09;;;10.64;93.40
76260;BME280;65076;52.362;6.588;2023-11-21T11:38:34;101836.03;;;10.16;96.54
76260;BME280;65076;52.362;6.588;2023-11-21T11:43:38;101842.47;;;9.81;98.31
76260;BME280;65076;52.362;6.588;2023-11-21T11:48:48;101850.19;;;9.64;99.88
76260;BME280;65076;52.362;6.588;2023-11-21T11:54:09;101856.78;;;9.54;100.00
76260;BME280;65076;52.362;6.588;2023-11-21T11:59:10;101863.28;;;9.47;100.00
76260;BME280;65076;52.362;6.588;2023-11-21T12:04:27;101881.19;;;9.51;100.00
76260;BME280;65076;52.362;6.588;2023-11-21T12:09:35;101877.25;;;9.62;100.00
76260;BME280;65076;52.362;6.588;2023-11-21T12:14:45;101883.50;;;9.64;100.00
76260;BME280;65076;52.362;6.588;2023-11-21T12:19:54;101902.81;;;9.49;99.28
76260;BME280;65076;52.362;6.588;2023-11-21T12:25:03;101889.72;;;9.68;98.84
76260;BME280;65076;52.362;6.588;2023-11-21T12:32:32;101910.84;;;9.85;96.58
76260;BME280;65076;52.362;6.588;2023-11-21T12:35:09;101912.44;;;9.93;95.42
76260;BME280;65076;52.362;6.588;2023-11-21T12:45:19;101922.06;;;10.02;94.80
76260;BME280;65076;52.362;6.588;2023-11-21T12:53:02;101938.91;;;9.81;92.73
76260;BME280;65076;52.362;6.588;2023-11-21T13:00:44;101947.22;;;9.73;90.07
76260;BME280;65076;52.362;6.588;2023-11-21T13:05:50;101945.09;;;9.52;89.21
76260;BME280;65076;52.362;6.588;2023-11-21T13:08:26;101951.41;;;9.52;89.04
76260;BME280;65076;52.362;6.588;2023-11-21T13:16:06;101961.59;;;9.41;87.08
76260;BME280;65076;52.362;6.588;2023-11-21T13:18:39;101957.84;;;9.47;86.25
76260;BME280;65076;52.362;6.588;2023-11-21T13:21:14;101958.25;;;9.30;85.93
76260;BME280;65076;52.362;6.588;2023-11-21T13:23:55;101961.44;;;9.47;85.60
76260;BME280;65076;52.362;6.588;2023-11-21T13:29:10;101974.69;;;9.56;84.85
76260;BME280;65076;52.362;6.588;2023-11-21T13:34:38;101959.53;;;9.15;85.53
76260;BME280;65076;52.362;6.588;2023-11-21T13:37:14;101983.25;;;9.38;84.73
76260;BME280;65076;52.362;6.588;2023-11-21T13:44:59;102000.13;;;9.82;82.03
76260;BME280;65076;52.362;6.588;2023-11-21T13:47:33;101999.69;;;9.64;81.37
76260;BME280;65076;52.362;6.588;2023-11-21T13:55:10;102004.81;;;9.41;80.95
76260;BME280;65076;52.362;6.588;2023-11-21T13:57:47;102019.09;;;9.46;81.10
76260;BME280;65076;52.362;6.588;2023-11-21T14:00:22;102013.72;;;9.43;79.70
76260;BME280;65076;52.362;6.588;2023-11-21T14:08:07;102041.44;;;9.16;80.71
76260;BME280;65076;52.362;6.588;2023-11-21T14:13:16;102055.66;;;9.22;80.62
76260;BME280;65076;52.362;6.588;2023-11-21T14:18:22;102046.28;;;9.00;81.34
76260;BME280;65076;52.362;6.588;2023-11-21T14:23:31;102064.44;;;8.93;81.80
76260;BME280;65076;52.362;6.588;2023-11-21T14:28:41;102068.38;;;9.17;82.17
76260;BME280;65076;52.362;6.588;2023-11-21T14:36:25;102078.69;;;9.00;81.01
76260;BME280;65076;52.362;6.588;2023-11-21T14:43:57;102095.59;;;9.08;79.86
76260;BME280;65076;52.362;6.588;2023-11-21T14:51:32;102104.78;;;9.00;79.92
76260;BME280;65076;52.362;6.588;2023-11-21T14:56:54;102120.22;;;8.93;77.77
76260;BME280;65076;52.362;6.588;2023-11-21T15:01:58;102126.38;;;9.00;78.02
76260;BME280;65076;52.362;6.588;2023-11-21T15:14:59;102159.56;;;9.05;79.27
76260;BME280;65076;52.362;6.588;2023-11-21T15:20:01;102166.13;;;8.91;79.70
76260;BME280;65076;52.362;6.588;2023-11-21T15:22:36;102176.00;;;8.92;79.50
76260;BME280;65076;52.362;6.588;2023-11-21T15:30:09;102194.31;;;8.77;80.14
76260;BME280;65076;52.362;6.588;2023-11-21T15:35:15;102196.50;;;8.55;81.04
76260;BME280;65076;52.362;6.588;2023-11-21T15:37:56;102208.91;;;8.67;79.59
76260;BME280;65076;52.362;6.588;2023-11-21T15:40:29;102204.69;;;8.50;80.95
76260;BME280;65076;52.362;6.588;2023-11-21T15:45:34;102212.72;;;8.54;81.06
76260;BME280;65076;52.362;6.588;2023-11-21T15:50:32;102208.25;;;8.53;80.65
76260;BME280;65076;52.362;6.588;2023-11-21T15:53:16;102217.78;;;8.72;81.18
76260;BME280;65076;52.362;6.588;2023-11-21T16:00:51;102233.22;;;8.64;81.40
76260;BME280;65076;52.362;6.588;2023-11-21T16:08:32;102235.06;;;8.63;81.61
76260;BME280;65076;52.362;6.588;2023-11-21T16:11:03;102245.78;;;8.65;81.09
76260;BME280;65076;52.362;6.588;2023-11-21T16:16:06;102259.16;;;8.74;81.25
76260;BME280;65076;52.362;6.588;2023-11-21T16:21:13;102266.44;;;8.69;80.76
76260;BME280;65076;52.362;6.588;2023-11-21T16:26:16;102281.56;;;8.77;81.22
76260;BME280;65076;52.362;6.588;2023-11-21T16:28:50;102279.75;;;8.78;80.70
76260;BME280;65076;52.362;6.588;2023-11-21T16:33:51;102280.84;;;8.68;80.45
76260;BME280;65076;52.362;6.588;2023-11-21T16:36:25;102294.06;;;8.81;80.40
76260;BME280;65076;52.362;6.588;2023-11-21T16:39:11;102302.69;;;9.02;79.98
76260;BME280;65076;52.362;6.588;2023-11-21T16:46:49;102315.63;;;8.84;79.90
76260;BME280;65076;52.362;6.588;2023-11-21T16:51:57;102311.78;;;8.45;80.20
76260;BME280;65076;52.362;6.588;2023-11-21T16:57:02;102331.22;;;8.66;80.24
76260;BME280;65076;52.362;6.588;2023-11-21T17:02:05;102339.84;;;8.89;79.37
76260;BME280;65076;52.362;6.588;2023-11-21T17:04:39;102356.13;;;8.83;78.41
76260;BME280;65076;52.362;6.588;2023-11-21T17:12:23;102365.25;;;8.74;80.40
76260;BME280;65076;52.362;6.588;2023-11-21T17:22:26;102391.56;;;8.60;80.03
76260;BME280;65076;52.362;6.588;2023-11-21T17:25:02;102414.03;;;8.61;78.28
76260;BME280;65076;52.362;6.588;2023-11-21T17:32:50;102424.25;;;8.37;77.92
76260;BME280;65076;52.362;6.588;2023-11-21T17:35:24;102429.88;;;8.21;78.03
76260;BME280;65076;52.362;6.588;2023-11-21T17:42:56;102448.88;;;8.10;77.79
76260;BME280;65076;52.362;6.588;2023-11-21T17:53:12;102446.25;;;8.05;77.35
76260;BME280;65076;52.362;6.588;2023-11-21T17:55:48;102461.16;;;8.35;76.64
76260;BME280;65076;52.362;6.588;2023-11-21T17:58:30;102467.84;;;8.71;75.55
76260;BME280;65076;52.362;6.588;2023-11-21T18:03:34;102473.78;;;8.29;78.72
76260;BME280;65076;52.362;6.588;2023-11-21T18:06:11;102475.66;;;8.22;79.91
76260;BME280;65076;52.362;6.588;2023-11-21T18:11:24;102484.16;;;7.87;81.32
76260;BME280;65076;52.362;6.588;2023-11-21T18:14:03;102480.84;;;7.64;82.06
76260;BME280;65076;52.362;6.588;2023-11-21T18:16:43;102489.03;;;7.52;84.19
76260;BME280;65076;52.362;6.588;2023-11-21T18:21:51;102487.16;;;8.41;80.68
76260;BME280;65076;52.362;6.588;2023-11-21T18:26:53;102484.88;;;8.03;81.08
76260;BME280;65076;52.362;6.588;2023-11-21T18:31:57;102492.47;;;7.68;82.85
76260;BME280;65076;52.362;6.588;2023-11-21T18:36:58;102502.78;;;7.17;85.18
76260;BME280;65076;52.362;6.588;2023-11-21T18:44:27;102511.47;;;7.51;85.73
76260;BME280;65076;52.362;6.588;2023-11-21T18:47:05;102507.28;;;7.13;85.43
76260;BME280;65076;52.362;6.588;2023-11-21T18:54:46;102515.59;;;6.80;87.91
76260;BME280;65076;52.362;6.588;2023-11-21T19:02:27;102530.69;;;7.05;87.18
76260;BME280;65076;52.362;6.588;2023-11-21T19:07:32;102524.47;;;6.94;85.46
76260;BME280;65076;52.362;6.588;2023-11-21T19:10:04;102526.97;;;7.18;86.31
76260;BME280;65076;52.362;6.588;2023-11-21T19:20:14;102545.94;;;7.05;84.54
76260;BME280;65076;52.362;6.588;2023-11-21T19:22:54;102559.16;;;7.34;84.44
76260;BME280;65076;52.362;6.588;2023-11-21T19:27:59;102563.13;;;6.70;86.30
76260;BME280;65076;52.362;6.588;2023-11-21T19:33:00;102572.16;;;6.63;86.11
76260;BME280;65076;52.362;6.588;2023-11-21T19:35:39;102577.56;;;6.56;87.62
76260;BME280;65076;52.362;6.588;2023-11-21T19:43:16;102587.41;;;6.58;87.17
76260;BME280;65076;52.362;6.588;2023-11-21T19:45:50;102591.84;;;6.65;86.45
76260;BME280;65076;52.362;6.588;2023-11-21T19:53:27;102591.09;;;6.19;88.35
76260;BME280;65076;52.362;6.588;2023-11-21T19:58:29;102601.81;;;6.28;88.01
76260;BME280;65076;52.362;6.588;2023-11-21T20:03:28;102608.13;;;6.26;87.97
76260;BME280;65076;52.362;6.588;2023-11-21T20:11:05;102616.19;;;6.08;88.33
76260;BME280;65076;52.362;6.588;2023-11-21T20:13:46;102614.41;;;6.14;88.78
76260;BME280;65076;52.362;6.588;2023-11-21T20:16:18;102608.16;;;6.09;89.34
76260;BME280;65076;52.362;6.588;2023-11-21T20:21:23;102639.44;;;6.45;87.59
76260;BME280;65076;52.362;6.588;2023-11-21T20:26:33;102642.88;;;6.90;84.79
76260;BME280;65076;52.362;6.588;2023-11-21T20:31:39;102611.56;;;6.73;82.16
76260;BME280;65076;52.362;6.588;2023-11-21T20:34:13;102624.25;;;6.20;84.83
76260;BME280;65076;52.362;6.588;2023-11-21T20:39:14;102622.38;;;6.51;86.09
76260;BME280;65076;52.362;6.588;2023-11-21T20:44:34;102624.91;;;6.98;82.98
76260;BME280;65076;52.362;6.588;2023-11-21T20:49:32;102641.09;;;6.82;81.82
76260;BME280;65076;52.362;6.588;2023-11-21T20:57:05;102658.97;;;6.99;79.61
76260;BME280;65076;52.362;6.588;2023-11-21T21:02:11;102655.28;;;7.19;79.96
76260;BME280;65076;52.362;6.588;2023-11-21T21:07:12;102657.16;;;7.02;77.79
76260;BME280;65076;52.362;6.588;2023-11-21T21:09:47;102665.25;;;7.01;78.02
76260;BME280;65076;52.362;6.588;2023-11-21T21:14:50;102659.91;;;6.95;77.57
76260;BME280;65076;52.362;6.588;2023-11-21T21:19:57;102682.31;;;6.92;78.10
76260;BME280;65076;52.362;6.588;2023-11-21T21:22:28;102688.75;;;6.20;79.58
76260;BME280;65076;52.362;6.588;2023-11-21T21:32:32;102716.53;;;6.13;81.33
76260;BME280;65076;52.362;6.588;2023-11-21T21:35:08;102706.69;;;5.90;81.95
76260;BME280;65076;52.362;6.588;2023-11-21T21:42:42;102718.34;;;6.12;81.57
76260;BME280;65076;52.362;6.588;2023-11-21T21:50:20;102726.38;;;6.39;80.17
76260;BME280;65076;52.362;6.588;2023-11-21T21:58:01;102741.63;;;6.22;80.70
76260;BME280;65076;52.362;6.588;2023-11-21T22:10:59;102738.03;;;6.08;80.76
76260;BME280;65076;52.362;6.588;2023-11-21T22:16:04;102755.06;;;6.15;80.70
76260;BME280;65076;52.362;6.588;2023-11-21T22:18:39;102768.50;;;6.31;80.81
76260;BME280;65076;52.362;6.588;2023-11-21T22:23:40;102770.28;;;6.14;80.31
76260;BME280;65076;52.362;6.588;2023-11-21T22:26:17;102785.53;;;6.17;79.93
76260;BME280;65076;52.362;6.588;2023-11-21T22:33:55;102783.63;;;5.82;81.97
76260;BME280;65076;52.362;6.588;2023-11-21T22:41:32;102811.47;;;6.13;80.80
76260;BME280;65076;52.362;6.588;2023-11-21T22:46:40;102805.19;;;5.97;80.50
76260;BME280;65076;52.362;6.588;2023-11-21T22:51:41;102813.25;;;5.96;81.32
76260;BME280;65076;52.362;6.588;2023-11-21T22:54:17;102820.44;;;6.02;80.36
76260;BME280;65076;52.362;6.588;2023-11-21T23:01:55;102811.38;;;5.80;80.84
76260;BME280;65076;52.362;6.588;2023-11-21T23:06:58;102831.06;;;5.79;82.40
76260;BME280;65076;52.362;6.588;2023-11-21T23:14:39;102836.50;;;5.97;82.02
76260;BME280;65076;52.362;6.588;2023-11-21T23:19:47;102835.22;;;5.10;85.01
76260;BME280;65076;52.362;6.588;2023-11-21T23:24:49;102846.22;;;5.62;84.60
76260;BME280;65076;52.362;6.588;2023-11-21T23:27:31;102837.16;;;5.40;85.31
76260;BME280;65076;52.362;6.588;2023-11-21T23:40:06;102828.28;;;5.51;85.42
76260;BME280;65076;52.362;6.588;2023-11-21T23:47:45;102834.66;;;5.84;83.17
76260;BME280;65076;52.362;6.588;2023-11-21T23:52:49;102832.97;;;6.09;82.09
76260;BME280;65076;52.362;6.588;2023-11-21T23:57:52;102823.97;;;5.97;80.87
